Time;durP1;ratioP1;P1;durP2;ratioP2;P2;SDS_P1;SDS_P2;PMS_P1;PMS_P2;Temp;Humidity;BMP_temperature;BMP_pressure;BME280_temperature;BME280_humidity;BME280_pressure;Samples;Min_cycle;Max_cycle;Signal;HPM_P1;HPM_P2
2021/01/28 00:01:10;;;;;;;8.58;4.55;;;;;;;0.26;74.32;99161.45;1759853;79;21188;-60
2021/01/28 00:03:38;;;;;;;9.25;4.55;;;;;;;0.26;74.13;99161.45;1720408;81;21930;-60
2021/01/28 00:06:06;;;;;;;11.48;4.92;;;;;;;0.22;73.95;99161.23;1758761;80;21180;-59
2021/01/28 00:08:35;;;;;;;9.03;4.45;;;;;;;0.26;73.92;99157.57;1760573;79;21941;-60
2021/01/28 00:11:02;;;;;;;8.80;3.87;;;;;;;0.25;74.13;99164.95;1732682;80;21212;-59
2021/01/28 00:13:30;;;;;;;7.78;4.47;;;;;;;0.19;74.15;99179.08;1715294;81;21288;-59
2021/01/28 00:15:58;;;;;;;11.65;4.67;;;;;;;0.25;74.04;99185.64;1758356;79;21119;-62
2021/01/28 00:18:27;;;;;;;9.28;4.05;;;;;;;0.27;74.06;99187.68;1733491;80;21227;-60
2021/01/28 00:20:54;;;;;;;7.12;4.62;;;;;;;0.24;73.87;99183.53;1692966;84;21204;-60
2021/01/28 00:23:22;;;;;;;11.43;3.65;;;;;;;0.29;73.54;99175.52;1761144;79;21145;-61
2021/01/28 00:25:49;;;;;;;8.53;4.03;;;;;;;0.32;73.31;99152.88;1757972;80;21618;-60
2021/01/28 00:28:20;;;;;;;8.55;4.60;;;;;;;0.23;73.48;99134.45;1757163;79;21232;-62
2021/01/28 00:30:50;;;;;;;9.55;4.83;;;;;;;0.25;73.66;99133.90;1736156;80;21212;-60
2021/01/28 00:33:21;;;;;;;7.33;4.10;;;;;;;0.31;73.29;99142.61;1756419;79;21176;-60
2021/01/28 00:35:51;;;;;;;7.37;4.20;;;;;;;0.30;73.33;99150.84;1756587;79;21153;-60
2021/01/28 00:38:32;;;;;;;8.35;4.15;;;;;;;0.29;73.43;99156.93;1759123;79;21889;-61
2021/01/28 00:41:02;;;;;;;9.30;5.08;;;;;;;0.35;73.73;99151.85;1743857;80;21216;-63
2021/01/28 00:43:30;;;;;;;9.98;5.00;;;;;;;0.32;73.61;99148.14;1737489;80;21161;-62
2021/01/28 00:45:59;;;;;;;7.25;3.70;;;;;;;0.32;73.50;99153.31;1695722;82;21157;-62
2021/01/28 00:48:27;;;;;;;8.58;4.22;;;;;;;0.36;73.39;99141.88;1698621;83;21232;-62
2021/01/28 00:50:56;;;;;;;8.23;4.78;;;;;;;0.34;73.00;99138.56;1686120;83;21235;-61
2021/01/28 00:53:23;;;;;;;7.55;4.65;;;;;;;0.32;72.58;99133.91;1702339;82;21192;-62
2021/01/28 00:55:52;;;;;;;9.13;4.72;;;;;;;0.31;72.82;99130.97;1731281;80;21216;-60
2021/01/28 00:58:24;;;;;;;12.50;4.85;;;;;;;0.31;73.01;99124.50;1710321;82;21231;-62
2021/01/28 01:00:52;;;;;;;9.30;4.80;;;;;;;0.34;72.50;99121.74;1697558;82;21224;-63
2021/01/28 01:03:21;;;;;;;10.32;5.28;;;;;;;0.30;72.56;99123.67;1684158;82;21216;-61
2021/01/28 01:05:49;;;;;;;8.15;4.33;;;;;;;0.29;72.53;99132.82;1682529;83;21235;-61
2021/01/28 01:08:31;;;;;;;8.15;4.55;;;;;;;0.31;72.53;99125.33;1703948;82;21184;-62
2021/01/28 01:11:09;;;;;;;9.10;5.10;;;;;;;0.32;72.52;99108.89;1700606;82;21540;-62
2021/01/28 01:13:39;;;;;;;10.25;4.20;;;;;;;0.32;72.30;99111.48;1708729;82;21184;-62
2021/01/28 01:16:16;;;;;;;11.28;5.05;;;;;;;0.33;72.41;99103.24;1731124;82;22562;-61
2021/01/28 01:18:46;;;;;;;7.83;3.85;;;;;;;0.32;72.33;99101.56;1732753;80;22567;-64
2021/01/28 01:21:14;;;;;;;8.38;5.12;;;;;;;0.32;72.15;99086.04;1718697;81;21200;-68
2021/01/28 01:23:44;;;;;;;7.20;3.70;;;;;;;0.27;71.71;99089.36;1718258;81;21211;-64
2021/01/28 01:26:16;;;;;;;8.45;4.42;;;;;;;0.26;71.71;99098.89;1705396;82;21623;-62
2021/01/28 01:28:45;;;;;;;9.28;4.83;;;;;;;0.29;71.79;99104.36;1718951;81;21284;-65
2021/01/28 01:31:17;;;;;;;11.45;4.65;;;;;;;0.27;71.68;99094.53;1717412;81;21593;-63
2021/01/28 01:33:45;;;;;;;11.03;4.60;;;;;;;0.29;71.86;99095.30;1716890;81;21211;-63
2021/01/28 01:36:13;;;;;;;10.05;4.83;;;;;;;0.31;71.83;99087.80;1717226;81;21760;-65
2021/01/28 01:38:54;;;;;;;7.53;3.80;;;;;;;0.34;71.78;99090.69;1717061;81;21602;-65
2021/01/28 01:41:29;;;;;;;8.85;4.45;;;;;;;0.35;71.84;99102.25;1693634;82;21228;-65
2021/01/28 01:43:59;;;;;;;10.72;4.90;;;;;;;0.35;71.82;99100.09;1692470;82;21227;-74
2021/01/28 01:46:27;;;;;;;9.40;4.37;;;;;;;0.35;71.76;99090.60;1718614;81;21168;-64
2021/01/28 01:49:01;;;;;;;8.05;4.45;;;;;;;0.41;71.95;99081.64;1704681;82;21194;-65
2021/01/28 01:51:43;;;;;;;9.70;4.95;;;;;;;0.38;71.87;99070.17;1759594;79;21172;-73
2021/01/28 01:54:34;;;;;;;10.82;4.22;;;;;;;0.39;71.62;99068.41;1759895;80;21858;-67
2021/01/28 01:57:07;;;;;;;8.40;4.67;;;;;;;0.32;71.93;99075.25;1759004;79;21177;-67
2021/01/28 01:59:50;;;;;;;11.53;5.12;;;;;;;0.30;72.21;99065.46;1758387;79;21226;-66
2021/01/28 02:02:38;;;;;;;8.43;4.40;;;;;;;0.31;72.04;99066.28;1745156;80;21192;-64
2021/01/28 02:06:43;;;;;;;9.60;4.90;;;;;;;0.31;72.24;99062.41;1798709;78;22690;-67
2021/01/28 02:09:21;;;;;;;9.33;4.90;;;;;;;0.26;72.24;99058.78;1716292;81;21239;-66
2021/01/28 02:11:56;;;;;;;7.03;3.85;;;;;;;0.26;72.15;99054.08;1768219;78;22153;-71
2021/01/28 02:14:41;;;;;;;9.28;4.22;;;;;;;0.29;72.27;99042.27;1798661;78;22880;-68
2021/01/28 02:20:38;;;;;;;8.60;4.50;;;;;;;0.26;71.93;99025.63;1729122;81;21612;-67
2021/01/28 02:23:24;;;;;;;10.48;4.10;;;;;;;0.28;72.02;99015.53;1728640;81;21189;-67
2021/01/28 02:25:52;;;;;;;8.98;4.55;;;;;;;0.29;72.01;99018.98;1729067;81;21175;-66
2021/01/28 02:28:20;;;;;;;8.83;4.97;;;;;;;0.30;71.65;99024.50;1695090;81;21187;-72
2021/01/28 02:30:54;;;;;;;9.85;4.90;;;;;;;0.34;71.73;99029.88;1727105;81;22249;-66
2021/01/28 02:33:48;;;;;;;11.20;5.47;;;;;;;0.36;71.79;99038.38;1728881;81;23442;-65
2021/01/28 02:36:36;;;;;;;8.95;4.75;;;;;;;0.36;71.63;99039.67;1699591;81;21636;-72
2021/01/28 02:39:14;;;;;;;12.55;5.45;;;;;;;0.38;71.21;99027.47;1867604;74;22683;-68
2021/01/28 02:41:42;;;;;;;9.73;5.25;;;;;;;0.32;71.38;99020.91;1853979;75;21132;-68
2021/01/28 02:44:12;;;;;;;11.38;4.37;;;;;;;0.36;71.44;99029.33;1836076;75;22251;-69
2021/01/28 02:46:44;;;;;;;10.85;5.30;;;;;;;0.34;71.63;99042.34;1823897;77;21171;-66
2021/01/28 02:49:25;;;;;;;10.63;5.65;;;;;;;0.36;71.68;99062.96;1870509;74;22683;-70
2021/01/28 02:51:54;;;;;;;7.90;4.67;;;;;;;0.37;71.53;99073.70;1841041;76;21108;-71
2021/01/28 02:54:24;;;;;;;8.68;4.65;;;;;;;0.40;71.38;99065.72;1838040;76;21162;-67
2021/01/28 02:56:51;;;;;;;13.28;5.05;;;;;;;0.41;71.67;99069.17;1775831;78;21136;-69
2021/01/28 02:59:19;;;;;;;10.53;5.25;;;;;;;0.40;70.94;99063.14;1801038;77;21593;-70
2021/01/28 03:01:48;;;;;;;9.95;5.12;;;;;;;0.44;70.98;99061.20;1761125;79;21266;-68
2021/01/28 03:04:18;;;;;;;9.83;5.75;;;;;;;0.43;70.91;99054.38;1785427;78;21780;-71
2021/01/28 03:06:50;;;;;;;11.43;6.42;;;;;;;0.40;70.76;99041.61;1748090;78;22015;-68
2021/01/28 03:09:18;;;;;;;10.38;6.33;;;;;;;0.43;70.52;99049.20;1797070;77;22279;-67
2021/01/28 03:11:47;;;;;;;10.88;6.00;;;;;;;0.47;70.56;99055.84;1795272;78;21148;-68
2021/01/28 03:14:16;;;;;;;10.20;5.80;;;;;;;0.47;70.73;99063.61;1765371;79;21163;-70
2021/01/28 03:16:45;;;;;;;13.13;5.55;;;;;;;0.47;70.70;99055.41;1775007;79;21147;-70
2021/01/28 03:19:20;;;;;;;10.98;6.17;;;;;;;0.51;70.66;99035.34;1769252;79;21422;-70
2021/01/28 03:21:48;;;;;;;10.30;5.67;;;;;;;0.54;70.59;99037.28;1742703;80;21195;-72
2021/01/28 03:24:32;;;;;;;10.95;6.28;;;;;;;0.56;70.48;99030.72;1796089;77;23344;-68
2021/01/28 03:27:01;;;;;;;11.55;6.30;;;;;;;0.54;70.27;99038.57;1773086;78;21180;-69
2021/01/28 03:29:29;;;;;;;12.75;5.92;;;;;;;0.54;70.34;99038.57;1771783;79;21838;-68
2021/01/28 03:31:57;;;;;;;12.28;6.03;;;;;;;0.53;70.44;99034.30;1730875;80;21247;-71
2021/01/28 03:34:26;;;;;;;13.48;6.97;;;;;;;0.50;70.16;99028.02;1686887;82;22428;-68
2021/01/28 03:36:55;;;;;;;14.35;5.83;;;;;;;0.47;70.21;99025.64;1711004;82;21180;-71
2021/01/28 03:39:24;;;;;;;10.38;5.75;;;;;;;0.51;70.32;99030.16;1686226;82;21166;-67
2021/01/28 03:41:53;;;;;;;12.82;6.22;;;;;;;0.49;70.13;99036.72;1711632;82;21629;-72
2021/01/28 03:44:21;;;;;;;12.25;6.40;;;;;;;0.52;70.30;99040.87;1671925;81;21199;-68
2021/01/28 03:46:50;;;;;;;11.53;6.15;;;;;;;0.52;70.31;99040.87;1722362;81;21182;-68
2021/01/28 03:49:19;;;;;;;12.68;5.70;;;;;;;0.52;70.16;99036.55;1713022;80;22329;-72
2021/01/28 03:51:57;;;;;;;13.13;6.75;;;;;;;0.55;70.25;99037.66;1820824;76;22773;-71
2021/01/28 03:54:43;;;;;;;11.25;5.83;;;;;;;0.52;70.46;99037.84;1760905;79;22230;-71
2021/01/28 03:57:12;;;;;;;11.33;6.28;;;;;;;0.55;70.43;99037.66;1773571;79;21663;-69
2021/01/28 03:59:42;;;;;;;11.53;5.65;;;;;;;0.55;70.39;99035.07;1768105;77;21168;-71
2021/01/28 04:02:24;;;;;;;10.65;6.05;;;;;;;0.55;70.43;99041.55;1755663;79;21167;-69
2021/01/28 04:05:12;;;;;;;14.13;6.03;;;;;;;0.48;70.13;99036.81;1789033;79;21161;-66
2021/01/28 04:07:58;;;;;;;9.28;5.50;;;;;;;0.50;70.49;99041.43;1791592;79;21124;-65
2021/01/28 04:10:32;;;;;;;11.45;5.58;;;;;;;0.51;70.67;99054.75;1756477;79;21190;-70
2021/01/28 04:13:00;;;;;;;11.28;6.08;;;;;;;0.51;70.56;99047.81;1757768;79;21037;-70
2021/01/28 04:15:40;;;;;;;11.10;6.17;;;;;;;0.54;70.75;99036.45;1871302;75;22684;-69
2021/01/28 04:18:08;;;;;;;11.65;5.17;;;;;;;0.50;70.58;99036.25;1814343;77;21152;-71
2021/01/28 04:20:39;;;;;;;9.80;5.40;;;;;;;0.52;70.76;99035.69;1809842;77;21603;-68
2021/01/28 04:23:11;;;;;;;10.95;5.42;;;;;;;0.51;70.62;99038.75;1844702;76;21164;-69
2021/01/28 04:25:52;;;;;;;12.70;5.22;;;;;;;0.53;70.72;99036.89;1722899;77;21639;-72
2021/01/28 04:28:20;;;;;;;11.38;6.15;;;;;;;0.52;70.72;99038.28;1810775;77;21760;-69
2021/01/28 04:30:58;;;;;;;13.75;6.53;;;;;;;0.52;70.87;99035.25;1872228;75;22668;-70
2021/01/28 04:33:27;;;;;;;11.08;5.75;;;;;;;0.51;70.86;99040.05;1785886;78;21136;-69
2021/01/28 04:35:56;;;;;;;11.97;7.22;;;;;;;0.50;70.68;99029.31;1790185;78;21650;-71
2021/01/28 04:38:23;;;;;;;12.40;6.53;;;;;;;0.54;70.69;99029.98;1806454;77;21037;-70
2021/01/28 04:41:01;;;;;;;12.23;5.90;;;;;;;0.51;70.71;99025.81;1768539;77;21155;-67
2021/01/28 04:43:31;;;;;;;11.03;5.87;;;;;;;0.54;70.84;99028.22;1788324;77;21172;-69
2021/01/28 04:46:15;;;;;;;10.40;5.58;;;;;;;0.56;70.95;99029.42;1874314;75;23043;-71
2021/01/28 04:48:45;;;;;;;11.15;5.80;;;;;;;0.54;70.94;99028.69;1807838;77;21739;-69
2021/01/28 04:51:14;;;;;;;11.00;5.80;;;;;;;0.57;71.06;99021.19;1757185;77;22360;-67
2021/01/28 04:53:58;;;;;;;11.78;6.85;;;;;;;0.55;71.15;99014.80;1803448;77;21748;-72
2021/01/28 04:56:33;;;;;;;10.40;5.70;;;;;;;0.52;71.28;99004.19;1779396;78;21192;-68
2021/01/28 04:59:31;;;;;;;11.60;5.95;;;;;;;0.56;71.48;98988.01;1872425;74;22728;-69
2021/01/28 05:02:00;;;;;;;10.48;6.78;;;;;;;0.48;71.54;98992.34;1812070;77;21183;-69
2021/01/28 05:04:56;;;;;;;10.20;5.87;;;;;;;0.50;71.67;98996.13;1840559;77;22592;-70
2021/01/28 05:07:42;;;;;;;11.38;5.90;;;;;;;0.50;71.98;98996.95;1842129;77;21689;-72
2021/01/28 05:10:30;;;;;;;11.73;6.10;;;;;;;0.45;72.31;98989.94;1709257;80;21194;-67
2021/01/28 05:13:33;;;;;;;12.15;6.00;;;;;;;0.41;72.69;98981.18;1842239;77;21135;-69
2021/01/28 05:16:38;;;;;;;14.47;6.47;;;;;;;0.34;72.98;98984.60;1770704;75;21155;-67
2021/01/28 05:19:40;;;;;;;11.93;5.92;;;;;;;0.41;73.31;98983.30;1870431;74;22717;-72
2021/01/28 05:22:27;;;;;;;10.55;6.55;;;;;;;0.40;73.08;98984.68;1838966;76;21174;-70
2021/01/28 05:25:29;;;;;;;12.98;6.50;;;;;;;0.33;73.67;98988.09;1842644;75;22648;-69
2021/01/28 05:28:30;;;;;;;12.40;6.70;;;;;;;0.36;73.78;98999.56;1840305;76;21226;-69
2021/01/28 05:31:20;;;;;;;12.43;6.65;;;;;;;0.32;73.71;98984.69;1840840;75;21618;-67
2021/01/28 05:33:50;;;;;;;13.93;7.30;;;;;;;0.29;73.78;98978.88;1833799;76;21566;-70
2021/01/28 05:36:40;;;;;;;13.85;6.83;;;;;;;0.36;73.65;98991.33;1812969;76;21211;-68
2021/01/28 05:39:31;;;;;;;12.75;7.42;;;;;;;0.32;73.68;98981.25;1819881;75;22787;-65
2021/01/28 05:42:22;;;;;;;11.38;7.08;;;;;;;0.30;73.67;98983.95;1796085;77;21726;-71
2021/01/28 05:44:50;;;;;;;11.05;6.75;;;;;;;0.32;73.41;98982.10;1774593;78;22211;-69
2021/01/28 05:47:30;;;;;;;12.75;6.37;;;;;;;0.30;73.60;98988.28;1773897;78;21755;-66
2021/01/28 05:50:18;;;;;;;12.28;6.60;;;;;;;0.33;73.60;98989.39;1746313;79;21142;-68
2021/01/28 05:52:45;;;;;;;11.87;6.27;;;;;;;0.35;73.44;98994.86;1776370;79;22135;-70
2021/01/28 05:55:20;;;;;;;12.68;6.62;;;;;;;0.31;73.35;98992.07;1774436;78;21615;-71
2021/01/28 05:58:08;;;;;;;14.23;8.25;;;;;;;0.34;73.68;99002.72;1744366;79;21199;-66
2021/01/28 06:00:52;;;;;;;12.03;7.30;;;;;;;0.38;73.78;98998.19;1775146;78;21160;-71
2021/01/28 06:03:54;;;;;;;13.80;8.35;;;;;;;0.49;73.57;98993.20;1776466;78;21177;-67
2021/01/28 06:07:12;;;;;;;12.95;7.08;;;;;;;0.45;73.36;98982.17;1772769;79;21164;-72
2021/01/28 06:10:41;;;;;;;17.42;9.48;;;;;;;0.51;73.23;98987.45;1772156;78;21165;-66
2021/01/28 06:13:45;;;;;;;13.98;7.58;;;;;;;0.54;73.03;98976.92;1868436;74;22730;-70
2021/01/28 06:16:37;;;;;;;14.78;7.97;;;;;;;0.47;73.13;98984.67;1837301;75;21201;-66
2021/01/28 06:19:27;;;;;;;13.87;7.47;;;;;;;0.48;73.26;98978.58;1809415;76;21193;-68
2021/01/28 06:22:02;;;;;;;14.63;8.23;;;;;;;0.49;72.89;98965.55;1769781;78;21139;-68
2021/01/28 06:25:14;;;;;;;14.33;7.97;;;;;;;0.55;72.93;98982.45;1870619;74;24180;-68
2021/01/28 06:27:54;;;;;;;14.65;9.05;;;;;;;0.57;72.88;98983.66;1811621;75;21115;-67
2021/01/28 06:30:33;;;;;;;13.35;7.92;;;;;;;0.52;73.04;98987.37;1842045;75;21127;-73
2021/01/28 06:33:36;;;;;;;14.63;9.13;;;;;;;0.60;72.69;98984.30;1873063;74;22635;-71
2021/01/28 06:36:26;;;;;;;15.15;9.00;;;;;;;0.58;72.62;98980.97;1766756;79;21662;-71
2021/01/28 06:39:15;;;;;;;14.07;8.10;;;;;;;0.60;72.65;98970.53;1801583;77;21185;-69
2021/01/28 06:42:29;;;;;;;16.90;9.05;;;;;;;0.59;72.43;98966.27;1825580;76;21187;-71
2021/01/28 06:45:13;;;;;;;13.75;8.55;;;;;;;0.57;72.51;98971.53;1807456;77;21652;-74
2021/01/28 06:48:23;;;;;;;14.25;8.95;;;;;;;0.62;72.38;98952.66;1869385;74;22849;-71
2021/01/28 06:51:14;;;;;;;20.17;10.45;;;;;;;0.63;72.45;98966.46;1839335;76;21120;-72
2021/01/28 06:53:58;;;;;;;16.42;10.90;;;;;;;0.53;72.61;98950.19;1843992;76;21359;-71
2021/01/28 06:57:08;;;;;;;14.45;8.85;;;;;;;0.57;72.60;98943.06;1844142;75;21112;-76
2021/01/28 07:00:05;;;;;;;17.85;9.33;;;;;;;0.60;72.60;98939.47;1808381;76;21588;-74
2021/01/28 07:03:16;;;;;;;15.05;9.55;;;;;;;0.60;72.52;98938.99;1813705;75;21533;-70
2021/01/28 07:06:01;;;;;;;21.15;10.08;;;;;;;0.58;72.56;98944.73;1790652;75;21549;-71
2021/01/28 07:08:38;;;;;;;16.05;8.95;;;;;;;0.60;72.64;98916.98;1844206;75;21799;-73
2021/01/28 07:11:24;;;;;;;17.73;10.15;;;;;;;0.61;72.62;98906.20;1775531;78;21147;-74
2021/01/28 07:14:15;;;;;;;17.05;9.98;;;;;;;0.68;72.48;98928.99;1752698;79;21114;-74
2021/01/28 07:17:19;;;;;;;16.95;10.30;;;;;;;0.60;72.63;98938.17;1799586;78;21112;-71
2021/01/28 07:20:02;;;;;;;20.02;10.13;;;;;;;0.67;72.63;98944.62;1744397;80;21152;-75
2021/01/28 07:22:38;;;;;;;19.30;9.38;;;;;;;0.69;72.87;98943.61;1787380;77;21633;-78
2021/01/28 07:25:30;;;;;;;20.50;10.85;;;;;;;0.72;72.49;98949.90;1800069;78;21115;-79
2021/01/28 07:28:03;;;;;;;14.95;9.20;;;;;;;0.67;72.66;98952.39;1795791;77;21107;-72
2021/01/28 07:30:39;;;;;;;18.92;10.48;;;;;;;0.73;72.65;98963.19;1773907;78;21223;-74
2021/01/28 07:33:09;;;;;;;19.57;11.05;;;;;;;0.73;73.17;98949.42;1780782;78;21545;-70
2021/01/28 07:35:46;;;;;;;19.10;11.28;;;;;;;0.69;73.31;98933.26;1794852;78;21187;-75
2021/01/28 07:38:36;;;;;;;20.77;11.48;;;;;;;0.74;73.06;98928.63;1774087;78;21191;-76
2021/01/28 07:41:29;;;;;;;17.82;10.48;;;;;;;0.72;73.03;98920.56;1776322;78;21242;-75
2021/01/28 07:44:37;;;;;;;19.32;12.37;;;;;;;0.73;73.46;98927.42;1840378;75;22668;-79
2021/01/28 07:47:34;;;;;;;21.15;12.13;;;;;;;0.74;73.54;98937.68;1771006;78;21136;-74
2021/01/28 07:50:34;;;;;;;18.73;11.10;;;;;;;0.70;73.67;98945.25;1748728;77;21235;-68
2021/01/28 07:53:33;;;;;;;18.55;10.58;;;;;;;0.70;73.86;98947.02;1799278;77;21196;-72
2021/01/28 07:56:00;;;;;;;18.87;11.22;;;;;;;0.78;73.79;98968.09;1790925;77;21136;-72
2021/01/28 07:58:33;;;;;;;22.52;11.93;;;;;;;0.72;73.98;98986.59;1771099;78;21120;-80
2021/01/28 08:01:13;;;;;;;21.42;11.22;;;;;;;0.75;74.08;98983.81;1806285;78;21096;-71
2021/01/28 08:04:01;;;;;;;22.35;12.25;;;;;;;0.81;73.97;98984.74;1777197;78;21257;-75
2021/01/28 08:06:29;;;;;;;20.77;11.78;;;;;;;0.78;73.96;98979.75;1767944;78;21167;-76
2021/01/28 08:09:09;;;;;;;18.95;11.60;;;;;;;0.79;74.11;98967.62;1780262;78;21168;-78
2021/01/28 08:11:39;;;;;;;22.65;12.33;;;;;;;0.86;73.97;98967.16;1803885;78;21230;-69
2021/01/28 08:14:09;;;;;;;22.48;11.57;;;;;;;0.82;73.79;98934.59;1709665;80;21130;-72
2021/01/28 08:16:37;;;;;;;19.80;11.05;;;;;;;0.78;74.04;98925.38;1777543;78;22052;-75
2021/01/28 08:19:15;;;;;;;20.52;10.75;;;;;;;0.85;73.97;98933.11;1798390;78;21156;-73
2021/01/28 08:21:43;;;;;;;20.72;9.45;;;;;;;0.92;73.71;98949.95;1800374;78;21606;-74
2021/01/28 08:24:21;;;;;;;19.35;10.63;;;;;;;0.89;73.63;98950.58;1737643;80;21509;-78
2021/01/28 08:26:49;;;;;;;14.28;8.15;;;;;;;0.86;73.71;98949.03;1769623;78;21400;-73
2021/01/28 08:29:20;;;;;;;14.50;7.53;;;;;;;0.90;73.52;98940.13;1798589;78;21242;-76
2021/01/28 08:31:54;;;;;;;14.80;7.25;;;;;;;0.90;73.52;98942.71;1800140;78;21136;-73
2021/01/28 08:34:25;;;;;;;17.92;8.45;;;;;;;0.87;73.58;98959.73;1798734;78;21920;-73
2021/01/28 08:37:03;;;;;;;17.15;7.60;;;;;;;0.90;73.61;98938.83;1768583;78;21182;-73
2021/01/28 08:39:34;;;;;;;18.25;8.25;;;;;;;0.97;73.45;98923.73;1738887;80;21230;-75
2021/01/28 08:42:16;;;;;;;9.50;6.12;;;;;;;0.91;73.47;98934.50;1710497;82;21215;-75
2021/01/28 08:44:46;;;;;;;12.80;7.08;;;;;;;0.89;73.55;98944.95;1778501;79;21124;-78
2021/01/28 08:47:21;;;;;;;13.60;7.37;;;;;;;0.92;73.42;98955.13;1778388;79;21621;-81
2021/01/28 08:50:07;;;;;;;11.15;5.97;;;;;;;0.89;73.44;98931.16;1776442;79;22295;-77
2021/01/28 08:52:35;;;;;;;11.75;6.25;;;;;;;0.85;73.40;98931.81;1732031;80;21569;-76
2021/01/28 08:55:13;;;;;;;11.35;6.30;;;;;;;0.91;73.18;98913.31;1744412;79;21629;-72
2021/01/28 08:57:41;;;;;;;14.95;6.35;;;;;;;0.94;73.34;98921.33;1746939;78;21159;-69
2021/01/28 09:00:10;;;;;;;10.78;6.17;;;;;;;0.90;73.30;98934.94;1747325;79;21432;-75
2021/01/28 09:02:42;;;;;;;12.47;6.08;;;;;;;0.98;73.36;98930.59;1776575;79;21191;-75
2021/01/28 09:05:26;;;;;;;12.55;5.97;;;;;;;1.03;72.92;98911.69;1777591;78;21181;-72
2021/01/28 09:07:57;;;;;;;11.25;6.20;;;;;;;1.03;72.51;98909.58;1778315;79;21201;-69
2021/01/28 09:10:40;;;;;;;11.15;5.97;;;;;;;1.07;72.42;98917.50;1777765;78;22167;-68
2021/01/28 09:13:26;;;;;;;11.35;6.33;;;;;;;1.07;72.06;98904.55;1740453;79;21581;-71
2021/01/28 09:16:18;;;;;;;10.98;6.33;;;;;;;1.04;72.01;98915.11;1748439;78;21184;-71
2021/01/28 09:18:49;;;;;;;10.32;5.22;;;;;;;0.99;71.83;98910.69;1738141;79;21743;-67
2021/01/28 09:21:23;;;;;;;10.25;6.08;;;;;;;1.07;71.97;98901.48;1748087;79;21234;-67
2021/01/28 09:24:14;;;;;;;12.82;4.95;;;;;;;1.03;71.84;98888.37;1744535;79;21239;-70
2021/01/28 09:26:43;;;;;;;10.28;6.92;;;;;;;1.04;71.71;98899.12;1777520;79;21204;-68
2021/01/28 09:29:36;;;;;;;9.25;5.28;;;;;;;1.00;71.31;98892.45;1777900;78;21211;-71
2021/01/28 09:32:25;;;;;;;9.93;5.05;;;;;;;1.01;71.90;98886.36;1873150;74;22682;-70
2021/01/28 09:35:13;;;;;;;13.13;6.15;;;;;;;1.02;71.97;98887.18;1809957;76;21174;-69
2021/01/28 09:37:45;;;;;;;12.18;6.10;;;;;;;0.93;72.17;98879.07;1804132;77;21362;-73
2021/01/28 09:40:32;;;;;;;14.87;6.45;;;;;;;1.01;72.43;98883.77;1797860;77;21175;-72
2021/01/28 09:43:33;;;;;;;13.25;6.65;;;;;;;0.99;72.34;98883.48;1782420;78;21164;-69
2021/01/28 09:59:15;;;;;;;8.80;5.20;;;;;;;0.81;72.47;98866.92;1818255;74;22770;-68
2021/01/28 10:01:44;;;;;;;9.50;4.87;;;;;;;0.79;72.45;98880.87;1734706;80;21183;-74
2021/01/28 10:04:12;;;;;;;9.43;4.70;;;;;;;0.88;72.62;98879.83;1762925;80;21183;-70
2021/01/28 10:06:40;;;;;;;9.75;5.80;;;;;;;0.86;72.77;98889.47;1764731;79;21201;-69
2021/01/28 10:09:08;;;;;;;11.18;5.17;;;;;;;0.89;72.56;98887.98;1763227;79;21190;-70
2021/01/28 10:11:36;;;;;;;10.40;4.75;;;;;;;0.97;72.32;98891.83;1735716;80;21214;-68
2021/01/28 10:14:04;;;;;;;9.28;4.75;;;;;;;0.95;72.40;98892.40;1733470;80;21194;-66
2021/01/28 10:16:32;;;;;;;10.40;4.85;;;;;;;0.93;72.31;98869.19;1763914;79;21211;-70
2021/01/28 10:19:00;;;;;;;9.23;4.70;;;;;;;1.02;71.89;98882.00;1763484;79;21214;-71
2021/01/28 10:21:27;;;;;;;9.63;4.65;;;;;;;1.02;72.03;98884.59;1765711;80;21171;-71
2021/01/28 10:23:55;;;;;;;11.73;5.53;;;;;;;1.03;71.85;98878.49;1763763;80;21179;-74
2021/01/28 10:26:22;;;;;;;10.10;4.65;;;;;;;1.08;71.65;98877.73;1764198;79;21171;-74
2021/01/28 10:28:50;;;;;;;15.55;5.20;;;;;;;1.10;71.53;98875.38;1764470;79;21614;-69
2021/01/28 10:31:17;;;;;;;10.25;4.97;;;;;;;1.06;71.71;98875.67;1764272;79;21227;-68
2021/01/28 10:33:45;;;;;;;9.23;5.35;;;;;;;1.14;71.58;98874.72;1734581;80;21199;-69
2021/01/28 10:36:12;;;;;;;11.93;4.75;;;;;;;1.16;71.37;98876.77;1763001;79;21143;-73
2021/01/28 10:38:58;;;;;;;9.00;3.58;;;;;;;1.17;71.54;98867.22;1874062;74;22719;-68
2021/01/28 10:41:29;;;;;;;8.20;4.58;;;;;;;1.15;71.32;98877.69;1820233;77;21155;-64
2021/01/28 10:43:57;;;;;;;9.45;4.85;;;;;;;1.19;71.44;98883.02;1841932;76;23047;-66
2021/01/28 10:46:25;;;;;;;8.45;5.17;;;;;;;1.18;71.79;98878.78;1841526;77;21160;-67
2021/01/28 10:48:52;;;;;;;13.95;5.95;;;;;;;1.22;71.72;98869.86;1840712;77;21222;-73
2021/01/28 10:51:21;;;;;;;11.50;5.85;;;;;;;1.27;71.18;98870.39;1840760;76;21199;-61
2021/01/28 10:53:48;;;;;;;8.43;4.15;;;;;;;1.25;70.78;98863.19;1796073;78;21203;-66
2021/01/28 10:56:16;;;;;;;9.95;5.37;;;;;;;1.27;71.02;98871.69;1772445;78;21223;-64
2021/01/28 10:58:44;;;;;;;10.45;5.58;;;;;;;1.35;71.01;98860.83;1777837;78;21137;-68
2021/01/28 11:01:11;;;;;;;10.03;5.75;;;;;;;1.32;70.76;98862.80;1782244;78;21198;-68
2021/01/28 11:03:40;;;;;;;12.50;4.30;;;;;;;1.34;70.82;98857.04;1751130;79;21155;-64
2021/01/28 11:06:09;;;;;;;12.93;6.22;;;;;;;1.40;70.47;98848.39;1749675;79;21616;-71
2021/01/28 11:08:37;;;;;;;9.78;4.97;;;;;;;1.27;70.37;98845.78;1781426;78;21349;-61
2021/01/28 11:11:06;;;;;;;10.50;4.30;;;;;;;1.29;70.81;98843.94;1751037;78;22505;-64
2021/01/28 11:13:33;;;;;;;8.23;4.65;;;;;;;1.38;70.75;98836.01;1749303;79;21857;-64
2021/01/28 11:16:01;;;;;;;8.08;4.37;;;;;;;1.34;70.94;98831.95;1745836;79;21215;-69
2021/01/28 11:18:29;;;;;;;9.45;4.62;;;;;;;1.39;71.11;98832.94;1776313;78;21826;-66
2021/01/28 11:20:58;;;;;;;9.40;4.55;;;;;;;1.45;70.86;98834.66;1800342;77;22152;-71
2021/01/28 11:23:26;;;;;;;15.25;7.70;;;;;;;1.48;70.66;98837.52;1803248;77;21702;-69
2021/01/28 11:25:53;;;;;;;10.45;5.85;;;;;;;1.42;70.29;98815.89;1771568;80;21176;-62
2021/01/28 11:28:21;;;;;;;13.90;6.65;;;;;;;1.41;70.15;98809.89;1770854;80;21168;-67
2021/01/28 11:30:49;;;;;;;10.53;5.12;;;;;;;1.51;69.86;98817.84;1803239;77;21146;-70
2021/01/28 11:33:17;;;;;;;9.90;4.58;;;;;;;1.49;69.99;98798.51;1778550;78;21257;-65
2021/01/28 11:35:45;;;;;;;8.85;4.35;;;;;;;1.56;70.16;98798.10;1801649;78;21176;-62
2021/01/28 11:38:12;;;;;;;7.90;3.87;;;;;;;1.65;69.88;98795.72;1772378;79;21191;-58
2021/01/28 11:40:40;;;;;;;6.72;3.62;;;;;;;1.69;69.37;98791.63;1790827;79;21179;-58
2021/01/28 11:43:09;;;;;;;10.65;5.03;;;;;;;1.71;69.16;98797.52;1759448;78;21226;-58
2021/01/28 11:45:38;;;;;;;6.97;3.42;;;;;;;1.75;68.84;98805.44;1789955;79;21224;-57
2021/01/28 11:48:06;;;;;;;9.00;4.55;;;;;;;1.79;68.50;98801.23;1761699;78;21222;-58
2021/01/28 11:50:35;;;;;;;7.40;3.70;;;;;;;1.74;68.26;98788.24;1790344;78;21167;-58
2021/01/28 11:53:03;;;;;;;8.80;5.08;;;;;;;1.71;68.19;98777.59;1787628;78;21214;-57
2021/01/28 11:55:32;;;;;;;9.78;5.37;;;;;;;1.72;68.16;98772.78;1758380;79;21226;-57
2021/01/28 11:57:59;;;;;;;9.48;4.20;;;;;;;1.71;68.33;98771.59;1790420;78;21222;-57
2021/01/28 12:00:27;;;;;;;11.85;6.45;;;;;;;1.71;68.64;98762.52;1787880;78;21177;-58
2021/01/28 12:02:55;;;;;;;8.05;4.28;;;;;;;1.77;68.58;98775.89;1762884;79;21256;-57
2021/01/28 12:05:25;;;;;;;9.85;4.87;;;;;;;1.77;67.97;98771.17;1788639;78;21202;-59
2021/01/28 12:07:54;;;;;;;10.88;4.30;;;;;;;1.76;68.09;98771.63;1789402;78;21748;-57
2021/01/28 12:10:24;;;;;;;10.20;4.53;;;;;;;1.78;68.11;98757.25;1761993;79;21435;-57
2021/01/28 12:12:51;;;;;;;9.65;4.75;;;;;;;1.84;68.00;98758.13;1790245;78;21229;-57
2021/01/28 12:15:20;;;;;;;8.88;4.50;;;;;;;1.78;68.18;98752.07;1758574;79;21195;-58
2021/01/28 12:17:50;;;;;;;8.28;4.35;;;;;;;1.77;68.32;98752.55;1790109;79;21215;-57
2021/01/28 12:20:24;;;;;;;10.32;4.92;;;;;;;1.78;68.32;98750.77;1790090;78;21111;-58
2021/01/28 12:22:52;;;;;;;9.60;4.00;;;;;;;1.74;68.13;98719.52;1788305;78;21281;-58
2021/01/28 12:25:22;;;;;;;8.73;3.87;;;;;;;1.73;68.22;98751.56;1754660;79;21241;-55
2021/01/28 12:27:50;;;;;;;8.75;3.87;;;;;;;1.75;67.94;98767.39;1789840;78;21602;-58
2021/01/28 12:30:21;;;;;;;8.88;4.55;;;;;;;1.77;68.18;98766.81;1765577;79;21190;-57
2021/01/28 12:32:49;;;;;;;11.40;4.25;;;;;;;1.77;67.72;98773.30;1764103;79;21199;-57
2021/01/28 12:35:20;;;;;;;10.93;4.90;;;;;;;1.79;67.90;98769.30;1789303;79;21611;-57
2021/01/28 12:37:48;;;;;;;8.93;3.80;;;;;;;1.75;67.74;98760.06;1801810;77;21176;-58